createdAt,value
2022-09-06T06:54:03.925Z,99
2022-09-06T06:55:10.085Z,98.5
2022-09-06T06:56:16.270Z,99
2022-09-06T06:57:22.432Z,99
2022-09-06T06:58:28.600Z,99
2022-09-06T06:59:34.764Z,98.5
2022-09-06T07:00:40.946Z,99
2022-09-06T07:01:47.119Z,99
2022-09-06T07:02:53.271Z,99
2022-09-06T07:03:59.467Z,98.5
2022-09-06T07:05:05.620Z,99
2022-09-06T07:06:11.779Z,98.5
2022-09-06T07:07:17.966Z,99
2022-09-06T07:08:24.137Z,99
2022-09-06T07:09:30.288Z,99
2022-09-06T07:10:36.460Z,98.5
2022-09-06T07:11:42.622Z,98.5
2022-09-06T07:12:48.798Z,98
2022-09-06T07:13:54.980Z,98
2022-09-06T07:15:01.129Z,97.5
2022-09-06T07:16:06.330Z,97.5
2022-09-06T07:17:11.547Z,97.5
2022-09-06T07:18:17.679Z,97
2022-09-06T07:19:23.859Z,97
2022-09-06T07:20:30.039Z,97.5
2022-09-06T07:21:36.208Z,96.5
2022-09-06T07:22:42.373Z,97
2022-09-06T07:23:48.554Z,97
2022-09-06T07:24:54.708Z,97.5
2022-09-06T07:26:00.863Z,98
2022-09-06T07:27:07.041Z,98
2022-09-06T07:28:13.222Z,98
2022-09-06T07:29:19.393Z,98.5
2022-09-06T07:30:25.562Z,98.5
2022-09-06T07:31:30.747Z,98.5
2022-09-06T07:32:36.919Z,98.5
2022-09-06T07:33:43.076Z,98.5
2022-09-06T07:34:49.265Z,98.5
2022-09-06T07:35:55.411Z,99
2022-09-06T07:37:01.595Z,99
2022-09-06T07:38:07.764Z,99
2022-09-06T07:39:12.942Z,99
2022-09-06T07:40:18.136Z,99
2022-09-06T07:41:24.323Z,99
2022-09-06T07:42:30.471Z,99.5
2022-09-06T07:43:36.638Z,99.5
2022-09-06T07:44:42.821Z,99.5
2022-09-06T07:45:48.984Z,99.5
2022-09-06T07:46:55.159Z,99.5
2022-09-06T07:48:01.328Z,99.5
2022-09-06T07:49:07.508Z,99.5
2022-09-06T07:50:13.662Z,99.5
2022-09-06T07:51:19.830Z,99.5
2022-09-06T07:52:26.009Z,99.5
2022-09-06T07:53:32.166Z,99.5
2022-09-06T07:54:37.348Z,99.5
2022-09-06T07:55:43.519Z,99.5
2022-09-06T07:56:49.695Z,99.5
2022-09-06T07:57:55.859Z,99.5
2022-09-06T07:59:02.026Z,99.5
2022-09-06T08:00:08.188Z,99.5
2022-09-06T08:01:14.371Z,99.5
2022-09-06T08:02:19.567Z,99.5
2022-09-06T08:03:24.761Z,99.5
2022-09-06T08:04:29.984Z,99.5
2022-09-06T08:05:35.127Z,99.5
2022-09-06T08:06:41.301Z,99.5
2022-09-06T08:07:47.528Z,99.5
2022-09-06T08:08:53.702Z,99.5
2022-09-06T08:09:59.807Z,99.5
2022-09-06T08:11:05.975Z,99.5
2022-09-06T08:12:12.154Z,99.5
2022-09-06T08:13:18.330Z,99.5
2022-09-06T08:14:24.487Z,99.5
2022-09-06T08:15:30.653Z,99.5
2022-09-06T08:16:36.841Z,99.5
2022-09-06T08:17:42.987Z,99.5
2022-09-06T08:18:49.158Z,99.5
2022-09-06T08:19:54.362Z,99.5
2022-09-06T08:21:00.526Z,99.5
2022-09-06T08:22:06.681Z,99.5
2022-09-06T08:23:12.866Z,99.5
2022-09-06T08:24:19.025Z,99.5
2022-09-06T08:25:25.188Z,99.5
2022-09-06T08:26:31.360Z,99.5
2022-09-06T08:27:36.565Z,99.5
2022-09-06T08:28:41.744Z,99.5
2022-09-06T08:29:46.951Z,99.5
2022-09-06T08:30:52.165Z,99.5
2022-09-06T08:31:58.333Z,99.5
2022-09-06T08:33:04.461Z,99.5
2022-09-06T08:34:10.630Z,99.5
2022-09-06T08:35:16.814Z,99.5
2022-09-06T08:36:22.971Z,99.5
2022-09-06T08:37:29.138Z,99.5
2022-09-06T08:38:35.300Z,99.5
2022-09-06T08:39:41.472Z,99.5
2022-09-06T08:40:47.662Z,99.5
2022-09-06T08:41:53.827Z,99.5
2022-09-06T08:42:59.993Z,99.5
2022-09-06T08:44:06.178Z,99.5
2022-09-06T08:45:11.357Z,99.5
2022-09-06T08:46:17.514Z,99.5
2022-09-06T08:47:23.681Z,99.5
2022-09-06T08:48:29.848Z,99.5
2022-09-06T08:49:36.052Z,99.5
2022-09-06T08:50:42.196Z,99.5
2022-09-06T08:51:48.356Z,99.5
2022-09-06T08:52:53.558Z,99.5
2022-09-06T08:53:58.747Z,99.5
2022-09-06T08:55:04.917Z,99.5
2022-09-06T08:56:11.072Z,99.5
2022-09-06T08:57:17.265Z,99.5
2022-09-06T08:58:23.413Z,99.5
2022-09-06T08:59:29.599Z,99.5
2022-09-06T09:00:35.751Z,99.5
2022-09-06T09:01:41.926Z,99.5
2022-09-06T09:02:48.096Z,99.5
2022-09-06T09:03:54.255Z,99.5
2022-09-06T09:05:00.457Z,99.5
2022-09-06T09:06:06.619Z,99.5
2022-09-06T09:07:12.778Z,99.5
2022-09-06T09:08:17.950Z,99.5
2022-09-06T09:09:24.130Z,99.5
2022-09-06T09:10:30.312Z,99.5
2022-09-06T09:11:36.467Z,99.5
2022-09-06T09:12:42.637Z,99.5
2022-09-06T09:13:48.827Z,99.5
2022-09-06T09:14:54.984Z,99.5
2022-09-06T09:16:00.169Z,99.5
2022-09-06T09:17:05.354Z,99.5
2022-09-06T09:18:10.558Z,99.5
2022-09-06T09:19:15.736Z,99.5
2022-09-06T09:20:20.945Z,99.5
2022-09-06T09:21:26.127Z,99.5
2022-09-06T09:22:32.294Z,99.5
2022-09-06T09:23:38.456Z,99.5
2022-09-06T09:24:44.633Z,99.5
2022-09-06T09:25:50.792Z,99.5
2022-09-06T09:26:56.967Z,99.5
2022-09-06T09:28:03.141Z,99.5
2022-09-06T09:29:09.300Z,99.5
2022-09-06T09:30:15.462Z,99.5
2022-09-06T09:31:21.642Z,99.5
2022-09-06T09:32:27.815Z,99.5
2022-09-06T09:33:33.974Z,99.5
2022-09-06T09:34:40.153Z,99.5
2022-09-06T09:35:45.346Z,99.5
2022-09-06T09:36:51.497Z,99.5
2022-09-06T09:37:57.680Z,99.5
2022-09-06T09:39:03.855Z,99.5
2022-09-06T09:40:10.008Z,99.5
2022-09-06T09:41:16.176Z,99.5
2022-09-06T09:42:22.357Z,99.5
2022-09-06T09:43:27.556Z,99.5
2022-09-06T09:44:32.738Z,99.5
2022-09-06T09:45:37.938Z,99
2022-09-06T09:46:43.104Z,99
2022-09-06T09:47:49.288Z,98.5
2022-09-06T09:48:55.488Z,98.5
2022-09-06T09:50:01.635Z,98
2022-09-06T09:51:07.812Z,98
2022-09-06T09:52:13.961Z,98.5
2022-09-06T09:53:20.136Z,98.5
2022-09-06T09:54:26.304Z,98
2022-09-06T09:55:32.483Z,98.5
2022-09-06T09:56:38.643Z,98
2022-09-06T09:57:44.800Z,97.5
2022-09-06T09:58:50.973Z,98
2022-09-06T09:59:57.150Z,98
2022-09-06T10:01:02.348Z,98.5
2022-09-06T10:02:08.511Z,97.5
2022-09-06T10:03:14.688Z,97
2022-09-06T10:04:20.845Z,97
2022-09-06T10:05:27.007Z,94
2022-09-06T10:06:33.199Z,94.5
2022-09-06T10:07:39.356Z,95
2022-09-06T10:08:44.557Z,92.5
2022-09-06T10:09:49.731Z,92
2022-09-06T10:10:55.892Z,90.5
2022-09-06T10:12:02.090Z,88.5
2022-09-06T10:13:08.238Z,82
2022-09-06T10:14:14.407Z,86.5
2022-09-06T10:15:20.582Z,83
2022-09-06T10:16:26.755Z,87.5
2022-09-06T10:17:31.931Z,88.5
2022-09-06T10:18:38.111Z,86
2022-09-06T10:19:44.275Z,81.5
2022-09-06T10:20:50.442Z,80.5
2022-09-06T10:21:56.617Z,76.5
2022-09-06T10:23:02.857Z,73.5
2022-09-06T10:24:08.956Z,75
2022-09-06T10:25:15.126Z,73
2022-09-06T10:26:21.296Z,77
2022-09-06T10:27:27.466Z,76
2022-09-06T10:28:33.625Z,74
2022-09-06T10:29:39.818Z,76.5
2022-09-06T10:30:45.975Z,75
2022-09-06T10:31:51.180Z,70.5
2022-09-06T10:32:56.360Z,70
2022-09-06T10:34:01.554Z,78.5
2022-09-06T10:35:06.752Z,76
2022-09-06T10:36:11.939Z,73
2022-09-06T10:37:17.156Z,73
2022-09-06T10:38:22.328Z,76
2022-09-06T10:39:27.505Z,75
2022-09-06T10:40:33.680Z,77
2022-09-06T10:41:39.837Z,78
2022-09-06T10:42:46.012Z,82
2022-09-06T10:43:52.186Z,82.5
2022-09-06T10:44:58.353Z,81.5
2022-09-06T10:46:04.526Z,86
2022-09-06T10:47:10.689Z,85.5
2022-09-06T10:48:16.867Z,83.5
2022-09-06T10:49:23.020Z,84.5
2022-09-06T10:50:29.191Z,85.5
2022-09-06T10:51:35.372Z,87.5
2022-09-06T10:52:41.548Z,88.5
2022-09-06T10:53:46.771Z,92
2022-09-06T10:54:52.893Z,87.5
2022-09-06T10:55:59.068Z,87
2022-09-06T10:57:05.232Z,88
2022-09-06T10:58:11.400Z,89.5
2022-09-06T10:59:17.560Z,89.5
2022-09-06T11:00:23.756Z,91.5
2022-09-06T11:01:28.937Z,95
2022-09-06T11:02:34.120Z,90
2022-09-06T11:03:40.288Z,89
2022-09-06T11:04:46.461Z,91
2022-09-06T11:05:52.638Z,89.5
2022-09-06T11:06:58.797Z,87.5
2022-09-06T11:08:04.981Z,91.5
2022-09-06T11:09:11.153Z,88.5
2022-09-06T11:10:17.299Z,88.5
2022-09-06T11:11:23.473Z,87.5
2022-09-06T11:12:29.650Z,82
2022-09-06T11:13:35.813Z,83
2022-09-06T11:14:41.983Z,87.5
2022-09-06T11:15:48.160Z,79
2022-09-06T11:16:53.351Z,84.5
2022-09-06T11:17:59.543Z,81
2022-09-06T11:19:05.686Z,83
2022-09-06T11:20:11.846Z,77
2022-09-06T11:21:18.026Z,81.5
2022-09-06T11:22:24.181Z,81.5
2022-09-06T11:23:30.359Z,78.5
2022-09-06T11:24:35.562Z,78.5
2022-09-06T11:25:40.740Z,80
2022-09-06T11:26:45.932Z,80.5
2022-09-06T11:27:51.133Z,78.5
2022-09-06T11:28:57.294Z,79
2022-09-06T11:30:03.467Z,80.5
2022-09-06T11:31:09.647Z,79.5
2022-09-06T11:32:15.798Z,81
2022-09-06T11:33:21.977Z,77
2022-09-06T11:34:28.136Z,77.5
2022-09-06T11:35:34.353Z,76
2022-09-06T11:36:40.468Z,80.5
2022-09-06T11:37:46.640Z,79
2022-09-06T11:38:52.810Z,80.5
2022-09-06T11:39:58.992Z,79.5
2022-09-06T11:41:05.158Z,78
2022-09-06T11:42:10.365Z,75.5
2022-09-06T11:44:22.695Z,75.5
2022-09-06T11:45:28.850Z,79
2022-09-06T11:46:35.014Z,76.5
2022-09-06T11:47:41.219Z,76.5
2022-09-06T11:48:47.359Z,78
2022-09-06T11:49:53.547Z,76.5
2022-09-06T11:50:58.728Z,80.5
2022-09-06T11:52:03.914Z,79.5
2022-09-06T11:53:09.110Z,75.5
2022-09-06T11:54:14.297Z,78
2022-09-06T11:55:20.459Z,78
2022-09-06T11:56:26.626Z,75
2022-09-06T11:57:32.808Z,75.5
2022-09-06T11:58:38.994Z,76.5
2022-09-06T11:59:45.132Z,73.5
2022-09-06T12:00:51.345Z,79
2022-09-06T12:03:03.662Z,79.5
2022-09-06T12:04:09.824Z,79
2022-09-06T12:05:16.001Z,76
2022-09-06T12:06:22.162Z,79
2022-09-06T12:07:28.331Z,83.5
2022-09-06T12:08:33.520Z,85
2022-09-06T12:09:39.694Z,85
2022-09-06T12:10:45.861Z,79
2022-09-06T12:11:52.012Z,82
2022-09-06T12:12:58.187Z,80
2022-09-06T12:14:04.373Z,83
2022-09-06T12:15:10.537Z,80
2022-09-06T12:17:22.875Z,79.5
2022-09-06T12:18:28.080Z,83.5
2022-09-06T12:19:33.246Z,84
2022-09-06T12:20:38.443Z,78.5
2022-09-06T12:21:43.625Z,78.5
2022-09-06T12:22:49.813Z,82
2022-09-06T12:25:02.152Z,81
2022-09-06T12:26:08.299Z,83.5
2022-09-06T12:27:14.479Z,82.5
2022-09-06T12:28:20.642Z,84.5
2022-09-06T12:29:26.812Z,85
2022-09-06T12:30:32.996Z,83
2022-09-06T12:31:39.157Z,84
2022-09-06T12:32:45.334Z,83.5
2022-09-06T12:33:51.487Z,82.5
2022-09-06T12:34:57.661Z,85
2022-09-06T12:36:02.858Z,87
2022-09-06T12:37:09.017Z,87
2022-09-06T12:38:15.196Z,82.5
2022-09-06T12:39:21.355Z,79
2022-09-06T12:40:27.518Z,85.5
2022-09-06T12:41:33.703Z,77.5
2022-09-06T12:42:39.869Z,81.5
2022-09-06T12:43:46.033Z,77
2022-09-06T12:44:51.222Z,80
2022-09-06T12:45:56.409Z,75.5
2022-09-06T12:47:02.582Z,79.5
2022-09-06T12:48:07.779Z,79.5
2022-09-06T12:49:12.982Z,81.5
2022-09-06T12:51:24.336Z,76.5
2022-09-06T12:52:29.542Z,77
2022-09-06T12:53:34.721Z,77
2022-09-06T12:54:40.882Z,81
2022-09-06T12:55:47.050Z,83
2022-09-06T12:56:53.224Z,82.5
2022-09-06T12:57:59.399Z,84.5
2022-09-06T12:59:05.559Z,82.5
2022-09-06T13:00:11.726Z,83.5
2022-09-06T13:01:17.891Z,83
2022-09-06T13:02:24.079Z,83
2022-09-06T13:03:30.233Z,81.5
2022-09-06T13:04:36.413Z,81
2022-09-06T13:05:42.576Z,80.5
2022-09-06T13:06:48.756Z,79
2022-09-06T13:07:53.949Z,81.5
2022-09-06T13:09:00.114Z,80
2022-09-06T13:10:06.278Z,81.5
2022-09-06T13:11:12.454Z,81
2022-09-06T13:12:18.617Z,77.5
2022-09-06T13:13:24.780Z,79.5
2022-09-06T13:14:30.968Z,77.5
2022-09-06T13:15:36.156Z,78
2022-09-06T13:16:41.326Z,79
2022-09-06T13:17:46.534Z,79
2022-09-06T13:18:51.739Z,80
2022-09-06T13:19:57.901Z,83.5
2022-09-06T13:21:04.070Z,83
2022-09-06T13:22:10.217Z,81
2022-09-06T13:23:16.389Z,77.5
2022-09-06T13:24:22.564Z,79
2022-09-06T13:25:28.722Z,80
2022-09-06T13:26:34.915Z,79.5
2022-09-06T13:27:41.066Z,81
2022-09-06T13:28:47.250Z,81
2022-09-06T13:29:53.408Z,82
2022-09-06T13:30:59.574Z,81.5
2022-09-06T13:32:05.760Z,84
2022-09-06T13:33:10.945Z,83.5
2022-09-06T13:34:17.106Z,82
2022-09-06T13:35:23.276Z,79.5
2022-09-06T13:36:29.454Z,77.5
2022-09-06T13:37:35.611Z,79
2022-09-06T13:38:41.794Z,77
2022-09-06T13:39:47.957Z,78.5
2022-09-06T13:40:53.158Z,77.5
2022-09-06T13:41:58.347Z,77.5
2022-09-06T13:43:04.509Z,70
2022-09-06T13:44:10.674Z,63.5
2022-09-06T13:45:16.845Z,62
2022-09-06T13:46:23.025Z,60
2022-09-06T13:47:29.183Z,59
2022-09-06T13:48:35.362Z,58
2022-09-06T13:49:41.525Z,52.5
2022-09-06T13:50:47.694Z,50.5
2022-09-06T13:51:53.876Z,51.5
2022-09-06T13:53:00.022Z,52
2022-09-06T13:54:06.196Z,50
2022-09-06T13:55:12.378Z,47.5
2022-09-06T13:56:17.555Z,47.5
2022-09-06T13:57:23.718Z,48
2022-09-06T13:58:28.923Z,47
2022-09-06T13:59:35.085Z,49.5
2022-09-06T14:00:41.270Z,47.5
2022-09-06T14:01:47.422Z,50
2022-09-06T14:02:53.607Z,54
2022-09-06T14:03:58.793Z,48
2022-09-06T14:05:03.984Z,52.5
2022-09-06T14:06:10.145Z,48
2022-09-06T14:07:16.312Z,47.5
2022-09-06T14:08:22.492Z,46
2022-09-06T14:09:28.653Z,47.5
2022-09-06T14:10:34.840Z,52
2022-09-06T14:11:41.002Z,54.5
2022-09-06T14:12:47.157Z,49.5
2022-09-06T14:13:53.344Z,52.5
2022-09-06T14:14:59.518Z,52.5
2022-09-06T14:16:05.681Z,55
2022-09-06T14:17:11.841Z,56.5
2022-09-06T14:18:18.014Z,55
2022-09-06T14:19:23.198Z,55
2022-09-06T14:20:29.362Z,55.5
2022-09-06T14:21:35.529Z,57
2022-09-06T14:22:41.705Z,54
2022-09-06T14:23:47.895Z,59
2022-09-06T14:24:54.065Z,60.5
2022-09-06T14:26:00.227Z,65.5
2022-09-06T14:27:05.428Z,64
2022-09-06T14:28:10.605Z,60
2022-09-06T14:29:15.795Z,64.5
2022-09-06T14:30:20.991Z,65.5
2022-09-06T14:31:26.191Z,61.5
2022-09-06T14:32:31.369Z,60
2022-09-06T14:33:37.534Z,62
2022-09-06T14:34:43.706Z,62
2022-09-06T14:35:49.870Z,68.5
2022-09-06T14:36:56.037Z,72
2022-09-06T14:38:02.225Z,75.5
2022-09-06T14:39:08.394Z,72.5
2022-09-06T14:40:14.548Z,76
2022-09-06T14:41:20.734Z,76.5
2022-09-06T14:42:26.889Z,78
2022-09-06T14:43:33.066Z,80.5
2022-09-06T14:44:39.230Z,81.5
2022-09-06T14:45:45.402Z,81
2022-09-06T14:46:50.576Z,82
2022-09-06T14:47:56.749Z,84
2022-09-06T14:49:02.919Z,81.5
2022-09-06T14:50:09.092Z,83
2022-09-06T14:51:15.264Z,82.5
2022-09-06T14:52:21.434Z,79
2022-09-06T14:53:27.601Z,76.5
2022-09-06T14:54:32.795Z,77
2022-09-06T14:55:37.982Z,73.5
2022-09-06T14:56:43.176Z,70
2022-09-06T14:57:48.360Z,69.5
2022-09-06T14:58:53.565Z,65
2022-09-06T14:59:58.744Z,61.5
2022-09-06T15:01:04.913Z,59
2022-09-06T15:02:11.079Z,61.5
2022-09-06T15:03:17.259Z,58
2022-09-06T15:04:23.410Z,60
2022-09-06T15:05:29.587Z,57.5
2022-09-06T15:06:35.804Z,56
2022-09-06T15:07:41.943Z,59.5
2022-09-06T15:08:48.095Z,57.5
2022-09-06T15:09:54.268Z,58.5
2022-09-06T15:11:00.446Z,53
2022-09-06T15:12:06.603Z,57
2022-09-06T15:13:12.790Z,55
2022-09-06T15:14:17.970Z,55.5
2022-09-06T15:15:24.129Z,53.5
2022-09-06T15:16:30.313Z,61.5
2022-09-06T15:17:36.480Z,60
2022-09-06T15:18:42.653Z,58
2022-09-06T15:19:48.804Z,63
2022-09-06T15:20:54.982Z,64
2022-09-06T15:22:00.171Z,65.5
2022-09-06T15:23:05.366Z,65.5
2022-09-06T15:24:11.545Z,64
2022-09-06T15:25:16.734Z,68
2022-09-06T15:26:21.952Z,69
2022-09-06T15:27:28.081Z,71.5
2022-09-06T15:28:34.248Z,75
2022-09-06T15:29:40.426Z,73
2022-09-06T15:30:46.626Z,75.5
2022-09-06T15:31:52.760Z,76
2022-09-06T15:32:58.932Z,78.5
2022-09-06T15:34:05.101Z,79
2022-09-06T15:35:11.276Z,80.5
2022-09-06T15:36:17.428Z,81
2022-09-06T15:37:23.613Z,82.5
2022-09-06T15:38:29.778Z,83
2022-09-06T15:39:35.942Z,84.5
2022-09-06T15:40:41.135Z,85.5
2022-09-06T15:41:47.294Z,84.5
2022-09-06T15:42:53.466Z,85
2022-09-06T15:43:59.642Z,85.5
2022-09-06T15:45:05.810Z,86
2022-09-06T15:46:11.975Z,86
2022-09-06T15:47:18.145Z,86.5
2022-09-06T15:48:23.337Z,87
2022-09-06T15:49:28.538Z,88
2022-09-06T15:50:34.685Z,88.5
2022-09-06T15:51:40.862Z,87.5
2022-09-06T15:52:47.045Z,88
2022-09-06T15:53:53.207Z,89
2022-09-06T15:54:59.381Z,88.5
2022-09-06T15:56:05.556Z,88
2022-09-06T15:57:11.710Z,88
2022-09-06T15:58:17.875Z,88.5
2022-09-06T15:59:24.054Z,89.5
2022-09-06T16:00:30.218Z,88.5
2022-09-06T16:01:36.395Z,89.5
2022-09-06T16:02:42.566Z,91
2022-09-06T16:03:47.750Z,91
2022-09-06T16:04:53.907Z,89.5
2022-09-06T16:06:00.099Z,89.5
2022-09-06T16:07:06.267Z,90
2022-09-06T16:08:12.432Z,90
2022-09-06T16:09:18.595Z,90.5
2022-09-06T16:10:24.757Z,90.5
2022-09-06T16:11:29.957Z,90
2022-09-06T16:12:35.167Z,90
2022-09-06T16:13:40.340Z,89.5
2022-09-06T16:14:45.530Z,89.5
2022-09-06T16:15:50.729Z,88.5
2022-09-06T16:16:55.908Z,89
2022-09-06T16:18:02.092Z,90
2022-09-06T16:19:07.286Z,90
2022-09-06T16:20:12.482Z,88.5
2022-09-06T16:21:18.638Z,89.5
2022-09-06T16:22:24.811Z,91
2022-09-06T16:23:30.981Z,91
2022-09-06T16:24:37.134Z,91
2022-09-06T16:25:43.308Z,90.5
2022-09-06T16:26:49.464Z,90.5
2022-09-06T16:27:55.653Z,90.5
2022-09-06T16:29:01.824Z,90
2022-09-06T16:30:07.992Z,90.5
2022-09-06T16:31:14.166Z,91
2022-09-06T16:32:20.319Z,91.5
2022-09-06T16:33:26.482Z,92
2022-09-06T16:34:31.694Z,91
2022-09-06T16:35:37.850Z,91.5
2022-09-06T16:36:44.032Z,92
2022-09-06T16:37:50.189Z,92
2022-09-06T16:38:56.366Z,92
2022-09-06T16:40:02.537Z,94
2022-09-06T16:41:08.690Z,93
2022-09-06T16:42:13.895Z,94
2022-09-06T16:43:19.073Z,94
2022-09-06T16:44:25.250Z,93.5
2022-09-06T16:45:31.416Z,93
2022-09-06T16:46:37.586Z,93.5
2022-09-06T16:47:43.751Z,94
2022-09-06T16:48:49.939Z,94
2022-09-06T16:49:56.083Z,94
2022-09-06T16:51:02.262Z,94
2022-09-06T16:52:08.421Z,95
2022-09-06T16:53:14.609Z,95
2022-09-06T16:54:20.769Z,94
2022-09-06T16:55:26.955Z,94.5
2022-09-06T16:56:33.133Z,95
2022-09-06T16:57:38.305Z,94.5
2022-09-06T16:58:44.456Z,94
2022-09-06T16:59:50.641Z,93.5
2022-09-06T17:00:56.805Z,94
2022-09-06T17:02:02.973Z,95
2022-09-06T17:03:09.150Z,95.5
2022-09-06T17:04:15.304Z,96
2022-09-06T17:05:20.500Z,96.5
2022-09-06T17:06:25.699Z,95.5
2022-09-06T17:07:30.880Z,96
2022-09-06T17:08:36.065Z,96
2022-09-06T17:09:42.244Z,95.5
2022-09-06T17:10:48.412Z,95
2022-09-06T17:11:54.595Z,94
2022-09-06T17:13:00.740Z,93.5
2022-09-06T17:14:06.923Z,93.5
2022-09-06T17:15:13.077Z,93.5
2022-09-06T17:16:19.269Z,93.5
2022-09-06T17:17:25.417Z,94
2022-09-06T17:18:31.591Z,94.5
2022-09-06T17:19:37.757Z,95
2022-09-06T17:20:43.947Z,95.5
2022-09-06T17:21:50.106Z,96
2022-09-06T17:22:55.285Z,96.5
2022-09-06T17:24:01.453Z,96.5
2022-09-06T17:25:07.625Z,96.5
2022-09-06T17:26:13.799Z,97
2022-09-06T17:27:19.975Z,97
2022-09-06T17:28:26.135Z,97
2022-09-06T17:29:32.322Z,97
2022-09-06T17:30:37.491Z,97.5
2022-09-06T17:31:42.691Z,97.5
2022-09-06T17:32:48.848Z,97.5
2022-09-06T17:33:55.032Z,97.5
2022-09-06T17:35:01.200Z,98
2022-09-06T17:36:07.367Z,98
2022-09-06T17:37:13.540Z,98.5
2022-09-06T17:38:19.711Z,98.5
2022-09-06T17:39:24.883Z,98.5
2022-09-06T17:40:31.054Z,98.5
2022-09-06T17:41:37.232Z,98.5
2022-09-06T17:42:43.402Z,98.5
2022-09-06T17:43:49.562Z,99
2022-09-06T17:44:55.747Z,99
2022-09-06T17:46:01.898Z,99
2022-09-06T17:47:08.095Z,99.5
2022-09-06T17:48:14.249Z,99.5
2022-09-06T17:49:20.426Z,99.5
2022-09-06T17:50:26.598Z,99.5
2022-09-06T17:51:32.741Z,99.5
2022-09-06T17:52:38.920Z,99.5
2022-09-06T17:53:44.128Z,99.5
2022-09-06T17:54:49.310Z,99.5
2022-09-06T17:55:54.523Z,99.5
2022-09-06T17:56:59.679Z,99.5
2022-09-06T17:58:05.863Z,99.5
2022-09-06T17:59:12.042Z,99.5
2022-09-06T18:00:18.203Z,99.5
2022-09-06T18:01:24.366Z,99.5
2022-09-06T18:02:30.552Z,99.5
2022-09-06T18:03:36.702Z,99.5
2022-09-06T18:04:42.871Z,99.5
2022-09-06T18:05:49.027Z,99.5
2022-09-06T18:06:55.211Z,99.5
2022-09-06T18:08:01.381Z,99.5
2022-09-06T18:09:07.541Z,99.5
2022-09-06T18:10:13.732Z,99.5
2022-09-06T18:11:18.910Z,99.5
2022-09-06T18:12:25.073Z,99.5
2022-09-06T18:13:31.260Z,99.5
2022-09-06T18:14:37.421Z,99.5
2022-09-06T18:15:43.582Z,99.5
2022-09-06T18:16:49.738Z,99.5
2022-09-06T18:17:55.917Z,99.5
2022-09-06T18:19:01.109Z,99.5
2022-09-06T18:20:06.310Z,99.5
2022-09-06T18:21:11.503Z,99.5
2022-09-06T18:22:16.680Z,99.5
2022-09-06T18:23:21.887Z,99.5
2022-09-06T18:24:27.067Z,99.5
2022-09-06T18:25:33.223Z,99.5
2022-09-06T18:26:39.393Z,99.5
2022-09-06T18:27:45.572Z,99.5
2022-09-06T18:28:51.745Z,99.5
2022-09-06T18:29:57.900Z,99.5
2022-09-06T18:31:04.077Z,99.5
2022-09-06T18:32:10.253Z,99.5
2022-09-06T18:33:16.406Z,99.5
2022-09-06T18:34:22.600Z,99.5
2022-09-06T18:35:28.754Z,99.5
2022-09-06T18:36:34.914Z,99.5
2022-09-06T18:37:40.128Z,99.5
2022-09-06T18:38:45.298Z,99.5
2022-09-06T18:39:50.487Z,99.5
2022-09-06T18:40:55.680Z,99.5
2022-09-06T18:42:01.847Z,99.5
2022-09-06T18:43:08.063Z,99.5
2022-09-06T18:44:14.235Z,99.5
2022-09-06T18:45:20.437Z,99.5
2022-09-06T18:46:26.520Z,99.5
2022-09-06T18:47:32.691Z,99.5
2022-09-06T18:48:38.909Z,99.5
2022-09-06T18:49:45.038Z,99.5
2022-09-06T18:50:51.200Z,99.5
2022-09-06T18:51:57.391Z,99.5
2022-09-06T18:53:03.557Z,99.5
2022-09-06T18:54:09.705Z,99.5
2022-09-06T18:55:14.911Z,99.5
2022-09-06T18:56:21.063Z,99.5
2022-09-06T18:57:27.274Z,99.5
2022-09-06T18:58:33.447Z,99.5
2022-09-06T18:59:39.639Z,99.5
2022-09-06T19:00:45.739Z,99.5
2022-09-06T19:01:51.945Z,99.5
2022-09-06T19:02:57.186Z,99.5
2022-09-06T19:04:02.303Z,99.5
2022-09-06T19:05:07.589Z,99.5
2022-09-06T19:06:12.688Z,99.5
2022-09-06T19:07:18.888Z,99.5
2022-09-06T19:08:25.024Z,99.5
2022-09-06T19:09:31.191Z,99.5
2022-09-06T19:10:37.352Z,99.5
2022-09-06T19:11:43.527Z,99.5
2022-09-06T19:12:49.689Z,99.5
2022-09-06T19:13:55.868Z,99.5
2022-09-06T19:15:02.048Z,99.5
2022-09-06T19:16:08.207Z,99.5
2022-09-06T19:17:14.364Z,99.5
2022-09-06T19:18:20.547Z,99.5
2022-09-06T19:19:26.711Z,99.5
2022-09-06T19:20:31.902Z,99.5
2022-09-06T19:21:38.054Z,99.5
2022-09-06T19:22:44.235Z,99.5
2022-09-06T19:23:50.399Z,99.5
2022-09-06T19:24:56.592Z,99.5
2022-09-06T19:26:02.747Z,99.5
2022-09-06T19:27:08.904Z,99.5
2022-09-06T19:28:14.125Z,99.5
2022-09-06T19:29:19.314Z,99.5
2022-09-06T19:30:25.488Z,99.5
2022-09-06T19:31:31.627Z,99.5
2022-09-06T19:32:37.808Z,99.5
2022-09-06T19:33:43.976Z,99.5
2022-09-06T19:34:50.148Z,99.5
2022-09-06T19:35:56.316Z,99.5
2022-09-06T19:37:02.475Z,99.5
2022-09-06T19:38:08.660Z,99.5
2022-09-06T19:39:14.856Z,99.5
2022-09-06T19:40:20.977Z,99.5
2022-09-06T19:41:27.148Z,99.5
2022-09-06T19:42:33.341Z,99.5
2022-09-06T19:43:38.516Z,99.5
2022-09-06T19:44:44.682Z,99.5
2022-09-06T19:45:50.861Z,99.5
2022-09-06T19:46:57.030Z,99.5
2022-09-06T19:48:03.197Z,99.5
2022-09-06T19:49:09.368Z,99.5
2022-09-06T19:50:15.518Z,99.5
2022-09-06T19:51:20.736Z,99.5
2022-09-06T19:52:25.914Z,99.5
2022-09-06T19:53:31.092Z,99.5
2022-09-06T19:54:36.296Z,99.5
2022-09-06T19:55:42.461Z,99.5
2022-09-06T19:56:48.647Z,99.5
2022-09-06T19:57:53.834Z,99.5
2022-09-06T19:58:59.007Z,99.5
2022-09-06T20:00:05.199Z,99.5
2022-09-06T20:01:11.354Z,99.5
2022-09-06T20:02:17.542Z,99.5
2022-09-06T20:03:23.696Z,99.5
2022-09-06T20:04:29.849Z,99.5
2022-09-06T20:05:36.041Z,99.5
2022-09-06T20:06:42.197Z,99.5
2022-09-06T20:07:48.355Z,99.5
2022-09-06T20:08:54.536Z,99.5
2022-09-06T20:10:00.698Z,99.5
2022-09-06T20:11:06.873Z,99.5
2022-09-06T20:12:13.045Z,99.5
2022-09-06T20:13:18.234Z,99.5
2022-09-06T20:14:24.406Z,99.5
2022-09-06T20:15:30.584Z,99.5
2022-09-06T20:16:36.752Z,99.5
2022-09-06T20:17:42.905Z,99.5
2022-09-06T20:18:49.082Z,99.5
2022-09-06T20:19:55.240Z,99.5
2022-09-06T20:21:00.449Z,99.5
2022-09-06T20:22:05.661Z,99.5
2022-09-06T20:23:10.852Z,99.5
2022-09-06T20:24:15.999Z,99.5
2022-09-06T20:25:22.169Z,99.5
2022-09-06T20:26:28.352Z,99.5
2022-09-06T20:27:34.516Z,99.5
2022-09-06T20:28:40.686Z,99.5
2022-09-06T20:29:46.859Z,99.5
2022-09-06T20:30:53.034Z,99.5
2022-09-06T20:31:59.220Z,99.5
2022-09-06T20:33:05.364Z,99.5
2022-09-06T20:34:11.553Z,99.5
2022-09-06T20:35:17.713Z,99.5
2022-09-06T20:36:23.875Z,99.5
2022-09-06T20:37:30.047Z,99.5
2022-09-06T20:38:35.219Z,99.5
2022-09-06T20:39:41.446Z,99.5
2022-09-06T20:40:47.566Z,99.5
2022-09-06T20:41:53.729Z,99.5
2022-09-06T20:42:59.894Z,99.5
2022-09-06T20:44:06.063Z,99.5
2022-09-06T20:45:12.249Z,99.5
2022-09-06T20:46:17.445Z,99.5
2022-09-06T20:47:22.626Z,99.5
2022-09-06T20:48:27.819Z,99.5
2022-09-06T20:49:33.010Z,99.5
2022-09-06T20:50:39.159Z,99.5
2022-09-06T20:51:45.341Z,99.5
2022-09-06T20:52:51.520Z,99.5
2022-09-06T20:53:57.675Z,99.5
2022-09-06T20:55:03.843Z,99.5
2022-09-06T20:56:10.027Z,99.5
2022-09-06T20:57:16.190Z,99.5
2022-09-06T20:58:22.363Z,99.5
2022-09-06T20:59:28.529Z,99.5
2022-09-06T21:00:34.711Z,99.5
2022-09-06T21:01:40.864Z,99.5
2022-09-06T21:02:47.033Z,99.5
2022-09-06T21:03:52.223Z,99.5
2022-09-06T21:04:58.380Z,99.5
2022-09-06T21:06:03.581Z,99.5
2022-09-06T21:07:08.773Z,99.5
2022-09-06T21:08:13.956Z,99.5
2022-09-06T21:09:19.153Z,99.5
2022-09-06T21:10:25.313Z,99.5
2022-09-06T21:11:31.493Z,99.5
2022-09-06T21:12:37.656Z,99.5
2022-09-06T21:13:43.830Z,99.5
2022-09-06T21:14:50.012Z,99.5
2022-09-06T21:15:56.169Z,99.5
2022-09-06T21:17:02.336Z,99.5
2022-09-06T21:18:08.500Z,99.5
2022-09-06T21:19:14.679Z,99.5
2022-09-06T21:20:19.851Z,99.5
2022-09-06T21:21:26.042Z,99.5
2022-09-06T21:22:32.201Z,99.5
2022-09-06T21:23:38.371Z,99.5
2022-09-06T21:24:44.551Z,99.5
2022-09-06T21:25:50.726Z,99.5
2022-09-06T21:26:56.896Z,99.5
2022-09-06T21:28:03.049Z,99.5
2022-09-06T21:29:09.212Z,99.5
2022-09-06T21:30:15.382Z,99.5
2022-09-06T21:31:20.592Z,99.5
2022-09-06T21:32:25.761Z,99.5
2022-09-06T21:33:31.932Z,99.5
2022-09-06T21:34:38.099Z,99.5
2022-09-06T21:35:44.283Z,99.5
2022-09-06T21:36:50.456Z,99.5
2022-09-06T21:37:56.616Z,99.5
2022-09-06T21:39:02.787Z,99.5
2022-09-06T21:40:08.957Z,99.5
2022-09-06T21:41:15.128Z,99.5
2022-09-06T21:42:21.287Z,99.5
2022-09-06T21:43:27.464Z,99.5
2022-09-06T21:44:33.633Z,99.5
2022-09-06T21:45:39.810Z,99.5
2022-09-06T21:46:44.983Z,99.5
2022-09-06T21:47:51.151Z,99.5
2022-09-06T21:48:57.326Z,99
2022-09-06T21:50:03.504Z,97.5
2022-09-06T21:51:09.682Z,98.5
2022-09-06T21:52:15.842Z,99.5
2022-09-06T21:53:22.006Z,99.5
2022-09-06T21:54:27.215Z,99.5
2022-09-06T21:55:32.401Z,99.5